Time;durP1;ratioP1;P1;durP2;ratioP2;P2;SDS_P1;SDS_P2;PMS_P1;PMS_P2;Temp;Humidity;BMP_temperature;BMP_pressure;BME280_temperature;BME280_humidity;BME280_pressure;Samples;Min_cycle;Max_cycle;Signal;HPM_P1;HPM_P2
2022/05/31 00:01:17;;;;;;;4.53;3.00;;;;;;;;;;5034060;28;20186;-70
2022/05/31 00:03:42;;;;;;;8.60;3.47;;;;;;;;;;5041355;28;20609;-70
2022/05/31 00:06:08;;;;;;;4.87;3.13;;;;;;;;;;5038242;28;20205;-71
2022/05/31 00:08:33;;;;;;;4.63;2.90;;;;;;;;;;5045483;28;20268;-71
2022/05/31 00:11:00;;;;;;;4.10;2.87;;;;;;;;;;5034812;28;20185;-71
2022/05/31 00:13:27;;;;;;;6.93;3.50;;;;;;;;;;5043723;28;20267;-71
2022/05/31 00:15:52;;;;;;;5.03;3.30;;;;;;;;;;5041999;28;20672;-70
2022/05/31 00:18:18;;;;;;;5.20;3.77;;;;;;;;;;5030734;28;20178;-71
2022/05/31 00:20:44;;;;;;;5.75;3.65;;;;;;;;;;5040209;28;20202;-71
2022/05/31 00:23:09;;;;;;;4.23;3.23;;;;;;;;;;5035816;28;20227;-71
2022/05/31 00:25:35;;;;;;;8.40;3.73;;;;;;;;;;5039493;28;20184;-71
2022/05/31 00:28:00;;;;;;;7.03;3.47;;;;;;;;;;5028899;28;20213;-69
2022/05/31 00:30:25;;;;;;;4.23;3.60;;;;;;;;;;5031998;28;20177;-70
2022/05/31 00:32:51;;;;;;;4.70;4.03;;;;;;;;;;5032811;28;20185;-70
2022/05/31 00:35:23;;;;;;;4.93;3.77;;;;;;;;;;5034083;28;20330;-70
2022/05/31 00:37:48;;;;;;;6.90;3.80;;;;;;;;;;5027886;28;20186;-70
2022/05/31 00:40:17;;;;;;;4.73;3.80;;;;;;;;;;5031181;28;20185;-70
2022/05/31 00:42:53;;;;;;;5.23;4.40;;;;;;;;;;5032856;28;20208;-70
2022/05/31 00:45:20;;;;;;;5.17;4.20;;;;;;;;;;5043982;28;20185;-70
2022/05/31 00:47:46;;;;;;;6.13;4.30;;;;;;;;;;5037361;28;20645;-70
2022/05/31 00:50:23;;;;;;;5.30;3.67;;;;;;;;;;5034485;28;20204;-70
2022/05/31 00:52:52;;;;;;;7.07;4.20;;;;;;;;;;5045809;28;20181;-71
2022/05/31 00:55:22;;;;;;;6.63;4.10;;;;;;;;;;5034986;28;20197;-70
2022/05/31 00:58:07;;;;;;;6.13;3.97;;;;;;;;;;5042378;28;20193;-70
2022/05/31 01:00:35;;;;;;;7.20;4.20;;;;;;;;;;5030642;28;20185;-70
2022/05/31 01:03:00;;;;;;;6.20;4.37;;;;;;;;;;5036181;28;20192;-70
2022/05/31 01:05:26;;;;;;;6.40;3.67;;;;;;;;;;5046261;28;20625;-70
2022/05/31 01:07:52;;;;;;;5.33;4.03;;;;;;;;;;5040028;28;20170;-71
2022/05/31 01:10:18;;;;;;;6.23;3.70;;;;;;;;;;5028706;28;20190;-70
2022/05/31 01:12:45;;;;;;;4.73;4.00;;;;;;;;;;5031310;28;20225;-70
2022/05/31 01:15:12;;;;;;;6.07;3.57;;;;;;;;;;5030559;28;20268;-70
2022/05/31 01:17:40;;;;;;;5.40;3.60;;;;;;;;;;5031766;28;20225;-71
2022/05/31 01:20:07;;;;;;;7.70;3.80;;;;;;;;;;5032092;28;20178;-71
2022/05/31 01:22:37;;;;;;;7.23;4.10;;;;;;;;;;5039891;28;20193;-71
2022/05/31 01:25:13;;;;;;;5.83;4.07;;;;;;;;;;5033156;28;20563;-70
2022/05/31 01:27:50;;;;;;;5.50;3.67;;;;;;;;;;5039749;28;20722;-71
2022/05/31 01:30:17;;;;;;;4.93;4.03;;;;;;;;;;5043156;28;20187;-71
2022/05/31 01:32:58;;;;;;;5.17;4.00;;;;;;;;;;5034482;28;20218;-71
2022/05/31 01:35:32;;;;;;;5.67;3.63;;;;;;;;;;5036598;28;20197;-70
2022/05/31 01:38:10;;;;;;;7.57;4.40;;;;;;;;;;5029833;28;20213;-70
2022/05/31 01:40:57;;;;;;;6.70;4.10;;;;;;;;;;5042229;28;20181;-70
2022/05/31 01:43:23;;;;;;;5.23;4.03;;;;;;;;;;5038009;28;20205;-71
2022/05/31 01:45:57;;;;;;;8.30;4.50;;;;;;;;;;5042844;28;20295;-71
2022/05/31 01:48:27;;;;;;;7.03;4.20;;;;;;;;;;5036379;28;20641;-71
2022/05/31 01:50:52;;;;;;;6.43;4.03;;;;;;;;;;5029256;28;20204;-71
2022/05/31 01:53:18;;;;;;;8.10;4.30;;;;;;;;;;5033995;28;20182;-70
2022/05/31 01:55:45;;;;;;;4.97;4.23;;;;;;;;;;5043903;28;20209;-71
2022/05/31 01:58:21;;;;;;;5.30;4.27;;;;;;;;;;5029537;28;20193;-70
2022/05/31 02:00:47;;;;;;;5.17;4.13;;;;;;;;;;5030596;28;20702;-71
2022/05/31 02:03:16;;;;;;;8.93;4.23;;;;;;;;;;5038879;28;20190;-71
2022/05/31 02:05:51;;;;;;;6.97;4.53;;;;;;;;;;5044913;28;20250;-71
2022/05/31 02:08:22;;;;;;;6.83;3.70;;;;;;;;;;5041677;28;20185;-70
2022/05/31 02:10:48;;;;;;;6.63;4.20;;;;;;;;;;5042924;28;20223;-71
2022/05/31 02:13:15;;;;;;;5.27;4.60;;;;;;;;;;5036262;28;20317;-71
2022/05/31 02:15:41;;;;;;;6.27;4.20;;;;;;;;;;5034037;28;20684;-70
2022/05/31 02:18:07;;;;;;;6.73;4.40;;;;;;;;;;5035865;28;20212;-70
2022/05/31 02:20:33;;;;;;;6.47;4.37;;;;;;;;;;5043777;28;20185;-71
2022/05/31 02:22:58;;;;;;;6.57;4.50;;;;;;;;;;5036993;28;20489;-71
2022/05/31 02:25:24;;;;;;;7.87;4.60;;;;;;;;;;5034587;28;20175;-70
2022/05/31 02:27:49;;;;;;;5.50;4.40;;;;;;;;;;5048303;28;20174;-70
2022/05/31 02:30:15;;;;;;;8.98;5.22;;;;;;;;;;5036729;28;20261;-71
2022/05/31 02:32:40;;;;;;;5.57;4.60;;;;;;;;;;5046079;28;20258;-71
2022/05/31 02:35:09;;;;;;;6.22;4.47;;;;;;;;;;5042441;28;20878;-70
2022/05/31 02:37:35;;;;;;;7.53;5.35;;;;;;;;;;5038100;28;20181;-71
2022/05/31 02:40:00;;;;;;;7.32;5.05;;;;;;;;;;5035458;28;20332;-71
2022/05/31 02:42:26;;;;;;;7.13;5.00;;;;;;;;;;5035573;28;20212;-70
2022/05/31 02:44:52;;;;;;;7.17;5.20;;;;;;;;;;5034931;28;20198;-71
2022/05/31 02:47:19;;;;;;;7.80;5.07;;;;;;;;;;5031554;28;20186;-71
2022/05/31 02:49:45;;;;;;;7.07;4.57;;;;;;;;;;5032146;28;20221;-71
2022/05/31 02:52:11;;;;;;;9.87;4.83;;;;;;;;;;5037584;28;20194;-71
2022/05/31 02:54:37;;;;;;;11.18;5.00;;;;;;;;;;5030650;28;20221;-70
2022/05/31 02:57:02;;;;;;;5.75;5.00;;;;;;;;;;5030511;28;20186;-70
2022/05/31 02:59:28;;;;;;;6.40;4.70;;;;;;;;;;5034683;28;20247;-71
2022/05/31 03:01:53;;;;;;;5.47;4.68;;;;;;;;;;5036933;28;20270;-71
2022/05/31 03:04:19;;;;;;;8.43;4.97;;;;;;;;;;5029100;28;20196;-71
2022/05/31 03:06:45;;;;;;;5.50;4.57;;;;;;;;;;5032276;28;20185;-71
2022/05/31 03:09:11;;;;;;;8.93;4.97;;;;;;;;;;5033198;28;20205;-71
2022/05/31 03:11:42;;;;;;;6.97;5.38;;;;;;;;;;5031894;28;20200;-71
2022/05/31 03:14:28;;;;;;;8.02;5.10;;;;;;;;;;5032896;28;20186;-71
2022/05/31 03:17:01;;;;;;;8.98;5.10;;;;;;;;;;5030763;28;20299;-70
2022/05/31 03:19:32;;;;;;;5.95;5.00;;;;;;;;;;5029923;28;20182;-70
2022/05/31 03:22:04;;;;;;;6.53;4.80;;;;;;;;;;5030909;28;20216;-71
2022/05/31 03:24:40;;;;;;;5.72;4.70;;;;;;;;;;5029564;28;20236;-70
2022/05/31 03:27:08;;;;;;;5.72;4.25;;;;;;;;;;5030927;28;20189;-71
2022/05/31 03:29:37;;;;;;;6.50;4.50;;;;;;;;;;5033251;28;20174;-70
2022/05/31 03:32:02;;;;;;;8.23;4.72;;;;;;;;;;5038218;28;20313;-71
2022/05/31 03:34:28;;;;;;;6.55;4.15;;;;;;;;;;5035071;28;20300;-71
2022/05/31 03:36:53;;;;;;;7.15;4.50;;;;;;;;;;5038762;28;20377;-71
2022/05/31 03:39:18;;;;;;;6.45;4.20;;;;;;;;;;5028315;28;20186;-71
2022/05/31 03:41:44;;;;;;;6.82;4.38;;;;;;;;;;5033624;28;20192;-71
2022/05/31 03:44:09;;;;;;;4.72;4.20;;;;;;;;;;5032702;28;20218;-71
2022/05/31 03:46:34;;;;;;;8.57;4.65;;;;;;;;;;5027472;28;20313;-71
2022/05/31 03:49:00;;;;;;;4.57;4.00;;;;;;;;;;5027271;28;20553;-70
2022/05/31 03:51:25;;;;;;;5.00;4.20;;;;;;;;;;5040739;28;20713;-70
2022/05/31 03:53:51;;;;;;;8.52;4.55;;;;;;;;;;5033145;28;20212;-71
2022/05/31 03:56:16;;;;;;;7.38;4.13;;;;;;;;;;5040933;28;20205;-71
2022/05/31 03:58:42;;;;;;;7.10;4.18;;;;;;;;;;5033060;28;20277;-71
2022/05/31 04:01:07;;;;;;;5.35;3.83;;;;;;;;;;5033209;28;20492;-71
2022/05/31 04:03:33;;;;;;;10.30;4.95;;;;;;;;;;5041004;28;20189;-71
2022/05/31 04:05:58;;;;;;;6.97;4.38;;;;;;;;;;5043874;28;20181;-70
2022/05/31 04:08:25;;;;;;;7.72;4.15;;;;;;;;;;5039537;28;20588;-70
2022/05/31 04:10:53;;;;;;;5.53;4.38;;;;;;;;;;5033844;28;20188;-71
2022/05/31 04:13:18;;;;;;;5.78;4.25;;;;;;;;;;5031221;28;20301;-70
2022/05/31 04:15:44;;;;;;;6.55;4.38;;;;;;;;;;5032832;28;20281;-71
2022/05/31 04:18:09;;;;;;;5.13;3.80;;;;;;;;;;5029590;28;20194;-70
2022/05/31 04:20:37;;;;;;;6.88;4.15;;;;;;;;;;5030911;28;20190;-71
2022/05/31 04:25:46;;;;;;;5.20;3.85;;;;;;;;;;5044175;28;20203;-70
2022/05/31 04:28:12;;;;;;;8.90;4.25;;;;;;;;;;5034222;28;20495;-71
2022/05/31 04:30:38;;;;;;;8.00;4.47;;;;;;;;;;5027802;28;20467;-71
2022/05/31 04:33:04;;;;;;;4.60;4.10;;;;;;;;;;5030247;28;20221;-70
2022/05/31 04:35:29;;;;;;;5.40;4.28;;;;;;;;;;5031698;28;20233;-70
2022/05/31 04:37:55;;;;;;;4.60;4.20;;;;;;;;;;5043645;28;20676;-70
2022/05/31 04:40:20;;;;;;;6.43;4.38;;;;;;;;;;5041506;28;20177;-71
2022/05/31 04:42:46;;;;;;;5.13;4.28;;;;;;;;;;5033120;28;20221;-71
2022/05/31 04:45:11;;;;;;;5.93;4.55;;;;;;;;;;5030900;28;20584;-70
2022/05/31 04:47:37;;;;;;;7.72;4.35;;;;;;;;;;5032442;28;20186;-70
2022/05/31 04:50:03;;;;;;;6.32;4.07;;;;;;;;;;5038534;28;20642;-70
2022/05/31 04:52:28;;;;;;;5.35;3.95;;;;;;;;;;5033789;28;20196;-70
2022/05/31 04:54:54;;;;;;;9.55;4.47;;;;;;;;;;5032049;28;20209;-71
2022/05/31 04:57:19;;;;;;;5.20;4.10;;;;;;;;;;5029176;28;20532;-71
2022/05/31 04:59:45;;;;;;;4.18;3.72;;;;;;;;;;5030063;28;20618;-71
2022/05/31 05:02:10;;;;;;;6.25;4.32;;;;;;;;;;5029849;28;20243;-70
2022/05/31 05:04:36;;;;;;;7.00;4.30;;;;;;;;;;5030553;28;20190;-71
2022/05/31 05:07:02;;;;;;;8.75;4.53;;;;;;;;;;5028826;28;20195;-71
2022/05/31 05:09:27;;;;;;;6.07;4.05;;;;;;;;;;5037625;28;20638;-71
2022/05/31 05:11:52;;;;;;;5.93;4.10;;;;;;;;;;5043715;28;20228;-72
2022/05/31 05:14:18;;;;;;;6.57;3.90;;;;;;;;;;5040914;28;20184;-71
2022/05/31 05:16:43;;;;;;;4.95;4.00;;;;;;;;;;5032788;28;20181;-70
2022/05/31 05:19:09;;;;;;;4.95;3.60;;;;;;;;;;5030695;28;20221;-70
2022/05/31 05:21:34;;;;;;;6.25;3.75;;;;;;;;;;5025364;28;20179;-71
2022/05/31 05:23:59;;;;;;;5.78;3.88;;;;;;;;;;5040609;28;20545;-71
2022/05/31 05:26:25;;;;;;;6.38;3.65;;;;;;;;;;5028698;28;20182;-71
2022/05/31 05:31:35;;;;;;;7.72;3.50;;;;;;;;;;5026584;28;20341;-70
2022/05/31 05:34:02;;;;;;;4.85;3.28;;;;;;;;;;5030828;28;20182;-70
2022/05/31 05:36:28;;;;;;;5.30;3.42;;;;;;;;;;5036751;28;20208;-70
2022/05/31 05:38:54;;;;;;;4.68;3.72;;;;;;;;;;5035733;28;20350;-70
2022/05/31 05:41:21;;;;;;;4.20;3.55;;;;;;;;;;5040553;28;20252;-71
2022/05/31 05:43:47;;;;;;;4.30;3.35;;;;;;;;;;5036561;28;20197;-70
2022/05/31 05:46:20;;;;;;;5.82;3.50;;;;;;;;;;5036343;28;20213;-70
2022/05/31 05:48:46;;;;;;;9.93;3.60;;;;;;;;;;5032921;28;20244;-71
2022/05/31 05:51:20;;;;;;;5.03;3.45;;;;;;;;;;5034447;28;20567;-70
2022/05/31 05:53:46;;;;;;;6.78;3.53;;;;;;;;;;5042584;28;20637;-70
2022/05/31 05:56:12;;;;;;;8.23;3.35;;;;;;;;;;5036719;28;20264;-70
2022/05/31 05:58:38;;;;;;;3.78;3.20;;;;;;;;;;5048916;28;20196;-70
2022/05/31 06:01:07;;;;;;;4.15;2.85;;;;;;;;;;5040089;28;20182;-69
2022/05/31 06:03:39;;;;;;;7.07;3.22;;;;;;;;;;5031779;28;20179;-70
2022/05/31 06:06:04;;;;;;;5.20;3.22;;;;;;;;;;5042731;28;20173;-70
2022/05/31 06:08:32;;;;;;;5.30;3.20;;;;;;;;;;5037477;28;20232;-71
2022/05/31 06:11:14;;;;;;;7.97;3.30;;;;;;;;;;5034384;28;20543;-71
2022/05/31 06:13:45;;;;;;;5.97;3.20;;;;;;;;;;5039097;28;20229;-71
2022/05/31 06:16:11;;;;;;;7.43;3.30;;;;;;;;;;5033968;28;20725;-69
2022/05/31 06:18:43;;;;;;;4.90;3.33;;;;;;;;;;5035977;28;20186;-70
2022/05/31 06:21:08;;;;;;;5.47;2.97;;;;;;;;;;5031844;28;20237;-70
2022/05/31 06:23:36;;;;;;;8.90;3.30;;;;;;;;;;5035069;28;20182;-71
2022/05/31 06:26:02;;;;;;;4.53;2.90;;;;;;;;;;5034103;28;20182;-67
2022/05/31 06:28:27;;;;;;;6.72;2.88;;;;;;;;;;5028480;28;20215;-68
2022/05/31 06:30:52;;;;;;;5.72;2.78;;;;;;;;;;5031782;28;20212;-68
2022/05/31 06:33:18;;;;;;;5.20;2.30;;;;;;;;;;5034939;28;20270;-66
2022/05/31 06:35:43;;;;;;;5.63;2.20;;;;;;;;;;5029530;28;20221;-66
2022/05/31 06:38:08;;;;;;;4.22;2.20;;;;;;;;;;5035131;28;20195;-68
2022/05/31 06:40:34;;;;;;;6.10;2.03;;;;;;;;;;5034706;28;20179;-69
2022/05/31 06:42:59;;;;;;;4.50;2.42;;;;;;;;;;5029816;28;20794;-67
2022/05/31 06:45:25;;;;;;;8.38;2.25;;;;;;;;;;5026658;28;20235;-68
2022/05/31 06:47:51;;;;;;;4.20;2.40;;;;;;;;;;5029137;28;20198;-67
2022/05/31 06:50:17;;;;;;;5.18;1.83;;;;;;;;;;5030242;28;20185;-66
2022/05/31 06:58:10;;;;;;;8.25;2.40;;;;;;;;;;5030250;28;20602;-67
2022/05/31 07:00:36;;;;;;;3.17;2.30;;;;;;;;;;5036251;28;20281;-69
2022/05/31 07:03:01;;;;;;;4.93;2.10;;;;;;;;;;5029385;28;20273;-69
2022/05/31 07:05:27;;;;;;;4.68;1.92;;;;;;;;;;5035660;28;20304;-69
2022/05/31 07:07:53;;;;;;;4.30;2.13;;;;;;;;;;5034098;28;20661;-69
2022/05/31 07:10:19;;;;;;;5.10;2.20;;;;;;;;;;5033406;28;20212;-69
2022/05/31 07:12:44;;;;;;;5.80;2.40;;;;;;;;;;5025791;28;20765;-70
2022/05/31 07:15:11;;;;;;;6.70;2.20;;;;;;;;;;5028319;28;20268;-70
2022/05/31 07:17:36;;;;;;;3.75;2.22;;;;;;;;;;5028593;28;20216;-70
2022/05/31 07:20:04;;;;;;;2.70;2.03;;;;;;;;;;5029569;28;20272;-70
2022/05/31 07:22:29;;;;;;;6.20;2.67;;;;;;;;;;5029857;28;20526;-68
2022/05/31 07:24:55;;;;;;;2.80;2.08;;;;;;;;;;5028728;28;20213;-69
2022/05/31 07:27:20;;;;;;;4.20;2.20;;;;;;;;;;5028668;28;20177;-70
2022/05/31 07:29:45;;;;;;;4.05;2.30;;;;;;;;;;5028895;28;20182;-70
2022/05/31 07:32:11;;;;;;;3.88;2.10;;;;;;;;;;5033226;28;20210;-70
2022/05/31 07:34:36;;;;;;;6.85;2.40;;;;;;;;;;5031461;28;20189;-69
2022/05/31 07:37:02;;;;;;;4.75;2.20;;;;;;;;;;5032011;28;20271;-69
2022/05/31 07:39:27;;;;;;;5.13;2.08;;;;;;;;;;5038534;28;20711;-67
2022/05/31 07:41:54;;;;;;;3.22;2.28;;;;;;;;;;5028680;28;20630;-69
2022/05/31 07:44:21;;;;;;;4.90;2.42;;;;;;;;;;5035483;28;20178;-67
2022/05/31 07:46:47;;;;;;;4.72;2.08;;;;;;;;;;5027363;28;20591;-68
2022/05/31 07:49:13;;;;;;;3.50;2.15;;;;;;;;;;5036548;28;20186;-69
2022/05/31 07:51:39;;;;;;;3.28;2.22;;;;;;;;;;5033268;28;20647;-70
2022/05/31 07:54:05;;;;;;;3.63;2.30;;;;;;;;;;5032373;28;20217;-68
2022/05/31 07:56:30;;;;;;;4.80;2.17;;;;;;;;;;5047671;28;20284;-69
2022/05/31 07:58:55;;;;;;;6.03;2.47;;;;;;;;;;5031209;28;20239;-65
2022/05/31 08:01:24;;;;;;;7.10;2.30;;;;;;;;;;5033945;28;20834;-70
2022/05/31 08:03:50;;;;;;;3.35;1.98;;;;;;;;;;5030963;28;20555;-69
2022/05/31 08:06:18;;;;;;;4.55;2.25;;;;;;;;;;5039765;28;20175;-69
2022/05/31 08:08:44;;;;;;;3.03;2.10;;;;;;;;;;5038011;28;20189;-68
2022/05/31 08:11:19;;;;;;;6.00;2.40;;;;;;;;;;5037048;28;20284;-69
2022/05/31 08:13:45;;;;;;;3.15;2.30;;;;;;;;;;5036801;28;20221;-70
2022/05/31 08:16:12;;;;;;;7.13;2.00;;;;;;;;;;5030103;28;20208;-69
2022/05/31 08:18:39;;;;;;;3.83;2.03;;;;;;;;;;5029693;28;20186;-72
2022/05/31 08:21:09;;;;;;;5.03;2.10;;;;;;;;;;5030841;28;20182;-70
2022/05/31 08:24:24;;;;;;;8.55;3.00;;;;;;;;;;5027337;28;20264;-69
2022/05/31 08:26:50;;;;;;;8.20;2.45;;;;;;;;;;5041022;28;20199;-70
2022/05/31 08:29:17;;;;;;;6.35;2.50;;;;;;;;;;5031160;28;20735;-70
2022/05/31 08:31:43;;;;;;;6.00;2.25;;;;;;;;;;5031234;28;20316;-70
2022/05/31 08:34:11;;;;;;;4.32;2.33;;;;;;;;;;5030216;28;20273;-69
2022/05/31 08:36:37;;;;;;;3.40;1.90;;;;;;;;;;5030838;28;20360;-71
2022/05/31 08:39:02;;;;;;;5.45;2.28;;;;;;;;;;5031722;28;20273;-70
2022/05/31 08:41:31;;;;;;;6.05;2.33;;;;;;;;;;5038870;28;20397;-71
2022/05/31 08:44:03;;;;;;;4.30;1.92;;;;;;;;;;5036059;28;20185;-71
2022/05/31 08:47:00;;;;;;;4.15;2.05;;;;;;;;;;5042667;28;20573;-70
2022/05/31 08:52:53;;;;;;;6.13;2.35;;;;;;;;;;5028569;28;20207;-70
2022/05/31 08:58:26;;;;;;;6.85;2.15;;;;;;;;;;5038386;28;20204;-70
2022/05/31 09:00:54;;;;;;;5.65;2.50;;;;;;;;;;5042076;28;20662;-70
2022/05/31 09:03:30;;;;;;;4.32;2.10;;;;;;;;;;5036527;28;20205;-70
2022/05/31 09:06:05;;;;;;;3.28;1.88;;;;;;;;;;5036954;28;20186;-68
2022/05/31 09:08:50;;;;;;;3.60;2.15;;;;;;;;;;5031849;28;20177;-66
2022/05/31 09:11:38;;;;;;;6.40;2.35;;;;;;;;;;5027174;28;20236;-65
2022/05/31 09:14:30;;;;;;;5.43;2.78;;;;;;;;;;5033041;28;20546;-64
2022/05/31 09:17:11;;;;;;;4.55;2.90;;;;;;;;;;5032120;28;20182;-64
2022/05/31 09:19:45;;;;;;;5.78;2.80;;;;;;;;;;5032996;28;20178;-66
2022/05/31 09:22:11;;;;;;;7.65;3.00;;;;;;;;;;5031381;28;20206;-66
2022/05/31 09:24:43;;;;;;;8.60;3.10;;;;;;;;;;5033604;28;20617;-65
2022/05/31 09:27:29;;;;;;;5.05;2.72;;;;;;;;;;5030605;28;20526;-66
2022/05/31 09:30:01;;;;;;;5.10;3.25;;;;;;;;;;5033102;28;20186;-68
2022/05/31 09:32:33;;;;;;;5.85;2.95;;;;;;;;;;5029837;28;20202;-66
2022/05/31 09:35:36;;;;;;;7.97;3.47;;;;;;;;;;5034016;28;20193;-65
2022/05/31 09:38:10;;;;;;;8.20;3.70;;;;;;;;;;5029799;28;20417;-67
2022/05/31 09:41:08;;;;;;;8.60;3.53;;;;;;;;;;5029139;28;20185;-68
2022/05/31 09:43:43;;;;;;;7.32;3.92;;;;;;;;;;5027576;28;20293;-67
2022/05/31 09:46:12;;;;;;;9.70;3.50;;;;;;;;;;5030929;28;20208;-67
2022/05/31 09:48:49;;;;;;;6.65;3.20;;;;;;;;;;5037393;28;20194;-67
2022/05/31 09:51:42;;;;;;;7.47;3.28;;;;;;;;;;5048313;28;20181;-68
2022/05/31 09:57:10;;;;;;;12.45;3.80;;;;;;;;;;5043133;28;20504;-67
2022/05/31 09:59:49;;;;;;;8.98;3.70;;;;;;;;;;5030483;28;20182;-68
2022/05/31 10:02:39;;;;;;;23.67;4.25;;;;;;;;;;5046433;28;20718;-69
2022/05/31 10:05:28;;;;;;;9.57;3.72;;;;;;;;;;5033242;28;20225;-68
2022/05/31 10:07:54;;;;;;;5.40;3.28;;;;;;;;;;5033844;28;20196;-68
2022/05/31 10:10:33;;;;;;;7.60;3.45;;;;;;;;;;5040546;28;20182;-68
2022/05/31 10:13:09;;;;;;;29.85;4.43;;;;;;;;;;5043917;28;20658;-69
2022/05/31 10:15:44;;;;;;;8.95;3.65;;;;;;;;;;5044631;28;20208;-68
2022/05/31 10:18:30;;;;;;;6.57;3.65;;;;;;;;;;5030933;28;20190;-69
2022/05/31 10:21:02;;;;;;;5.75;3.70;;;;;;;;;;5035346;28;20185;-69
2022/05/31 10:23:37;;;;;;;5.32;3.20;;;;;;;;;;5033833;28;20191;-68
2022/05/31 10:26:03;;;;;;;9.45;3.55;;;;;;;;;;5034567;28;20189;-70
2022/05/31 10:28:39;;;;;;;6.88;3.15;;;;;;;;;;5038296;28;20221;-70
2022/05/31 10:31:34;;;;;;;7.32;3.40;;;;;;;;;;5031716;28;20660;-69
2022/05/31 10:34:02;;;;;;;9.35;3.63;;;;;;;;;;5030914;28;20170;-70
2022/05/31 10:36:31;;;;;;;4.50;3.00;;;;;;;;;;5036026;28;20261;-70
2022/05/31 10:39:07;;;;;;;4.95;3.13;;;;;;;;;;5034997;28;20189;-70
2022/05/31 10:41:34;;;;;;;3.97;2.75;;;;;;;;;;5040658;28;20169;-70
2022/05/31 10:44:25;;;;;;;4.43;3.08;;;;;;;;;;5039642;28;20267;-70
2022/05/31 10:46:59;;;;;;;7.50;3.03;;;;;;;;;;5030764;28;20205;-69
2022/05/31 10:49:24;;;;;;;8.20;2.80;;;;;;;;;;5043722;28;20178;-70
2022/05/31 10:52:23;;;;;;;7.13;2.53;;;;;;;;;;5049721;28;20188;-70
2022/05/31 10:55:06;;;;;;;6.57;2.83;;;;;;;;;;5030944;28;20224;-69
2022/05/31 10:58:08;;;;;;;7.75;2.78;;;;;;;;;;5047187;28;20187;-68
2022/05/31 11:00:45;;;;;;;6.30;3.03;;;;;;;;;;5033341;28;20247;-71
2022/05/31 11:03:10;;;;;;;7.97;2.80;;;;;;;;;;5035871;28;20188;-72
2022/05/31 11:06:05;;;;;;;6.82;3.10;;;;;;;;;;5043481;28;20178;-72
2022/05/31 11:11:59;;;;;;;5.25;2.40;;;;;;;;;;5033016;28;20472;-70
2022/05/31 11:14:46;;;;;;;5.60;2.90;;;;;;;;;;5027003;28;20665;-71
2022/05/31 11:17:46;;;;;;;5.95;2.88;;;;;;;;;;5041011;28;20182;-71
2022/05/31 11:20:26;;;;;;;5.40;3.15;;;;;;;;;;5029659;28;20642;-72
2022/05/31 11:23:10;;;;;;;8.05;3.13;;;;;;;;;;5028025;28;20188;-68
2022/05/31 11:26:04;;;;;;;4.55;2.97;;;;;;;;;;5030435;28;20178;-71
2022/05/31 11:29:10;;;;;;;5.28;3.38;;;;;;;;;;5028081;28;20170;-71
2022/05/31 11:31:47;;;;;;;7.90;3.10;;;;;;;;;;5028083;28;20461;-71
2022/05/31 11:34:46;;;;;;;8.45;3.50;;;;;;;;;;5040463;28;20750;-70
2022/05/31 11:37:27;;;;;;;4.10;3.33;;;;;;;;;;5038453;28;20205;-65
2022/05/31 11:40:08;;;;;;;3.65;3.08;;;;;;;;;;5028948;28;20264;-66
2022/05/31 11:43:01;;;;;;;6.90;3.90;;;;;;;;;;5043969;28;20272;-68
2022/05/31 11:45:47;;;;;;;5.93;3.20;;;;;;;;;;5031655;28;20170;-66
2022/05/31 11:48:48;;;;;;;5.53;3.22;;;;;;;;;;5037605;28;20261;-69
2022/05/31 11:51:44;;;;;;;7.25;3.30;;;;;;;;;;5023003;28;20229;-69
2022/05/31 11:54:41;;;;;;;4.32;3.00;;;;;;;;;;5030047;28;20637;-69
2022/05/31 11:57:36;;;;;;;4.25;3.25;;;;;;;;;;5031539;28;20215;-70
2022/05/31 12:00:11;;;;;;;7.07;3.55;;;;;;;;;;5035479;28;20186;-71
2022/05/31 12:02:45;;;;;;;9.25;3.65;;;;;;;;;;5028803;28;20213;-72
2022/05/31 12:05:25;;;;;;;4.35;3.28;;;;;;;;;;5029554;28;20182;-67
2022/05/31 12:08:06;;;;;;;6.15;3.15;;;;;;;;;;5043972;28;20185;-69
2022/05/31 12:10:58;;;;;;;6.07;3.17;;;;;;;;;;5039898;28;20189;-68
2022/05/31 12:13:24;;;;;;;3.10;2.67;;;;;;;;;;5033428;28;20519;-66
2022/05/31 12:15:52;;;;;;;5.43;2.88;;;;;;;;;;5035574;28;20673;-67
2022/05/31 12:18:18;;;;;;;7.57;3.08;;;;;;;;;;5036104;28;20178;-69
2022/05/31 12:21:07;;;;;;;4.57;2.60;;;;;;;;;;5036578;28;20205;-67
2022/05/31 12:23:40;;;;;;;4.30;2.72;;;;;;;;;;5025639;28;20202;-69
2022/05/31 12:26:36;;;;;;;4.10;2.78;;;;;;;;;;5030386;28;20552;-69
2022/05/31 12:29:04;;;;;;;6.43;2.42;;;;;;;;;;5033048;28;20855;-65
2022/05/31 12:31:32;;;;;;;4.28;2.78;;;;;;;;;;5033046;28;20205;-66
2022/05/31 12:34:33;;;;;;;6.28;2.85;;;;;;;;;;5030874;28;20190;-71
2022/05/31 12:37:08;;;;;;;3.42;2.72;;;;;;;;;;5031432;28;20190;-69
2022/05/31 12:39:35;;;;;;;6.20;2.85;;;;;;;;;;5033986;28;20664;-69
2022/05/31 12:42:13;;;;;;;4.10;2.40;;;;;;;;;;5035089;28;20201;-66
2022/05/31 12:44:43;;;;;;;5.75;2.60;;;;;;;;;;5039228;28;20247;-67
2022/05/31 12:47:30;;;;;;;4.30;2.70;;;;;;;;;;5029437;28;20200;-66
2022/05/31 12:50:06;;;;;;;5.95;2.58;;;;;;;;;;5035311;28;20598;-69
2022/05/31 12:55:05;;;;;;;3.58;2.05;;;;;;;;;;5031831;28;20213;-68
2022/05/31 12:57:30;;;;;;;3.38;2.50;;;;;;;;;;5028251;28;20190;-69
2022/05/31 12:59:58;;;;;;;3.92;2.42;;;;;;;;;;5038269;28;20213;-67
2022/05/31 13:02:32;;;;;;;3.90;2.15;;;;;;;;;;5026078;28;20251;-65
2022/05/31 13:05:06;;;;;;;3.45;1.98;;;;;;;;;;5031515;28;20174;-65
2022/05/31 13:07:46;;;;;;;4.63;2.10;;;;;;;;;;5029026;28;20541;-70
2022/05/31 13:10:32;;;;;;;5.18;2.50;;;;;;;;;;5031757;28;20190;-70
2022/05/31 13:21:17;;;;;;;2.67;2.30;;;;;;;;;;5031978;28;20196;-71
2022/05/31 13:23:46;;;;;;;4.70;2.60;;;;;;;;;;5032927;28;20182;-72
2022/05/31 13:26:17;;;;;;;5.03;2.65;;;;;;;;;;5035486;28;20182;-71
2022/05/31 13:28:57;;;;;;;4.97;2.67;;;;;;;;;;5034639;28;20258;-71
2022/05/31 13:31:25;;;;;;;4.22;2.60;;;;;;;;;;5027505;28;20214;-72
2022/05/31 13:33:59;;;;;;;4.47;2.55;;;;;;;;;;5038788;28;20252;-72
2022/05/31 13:36:27;;;;;;;6.03;3.50;;;;;;;;;;5038839;28;20213;-71
2022/05/31 13:39:08;;;;;;;4.57;2.65;;;;;;;;;;5040121;28;20595;-70
2022/05/31 13:41:44;;;;;;;6.78;3.15;;;;;;;;;;5035777;28;20669;-71
2022/05/31 13:44:10;;;;;;;4.22;2.50;;;;;;;;;;5030690;28;20208;-69
2022/05/31 13:46:42;;;;;;;5.32;2.42;;;;;;;;;;5030696;28;20174;-70
2022/05/31 13:49:19;;;;;;;3.30;2.38;;;;;;;;;;5030253;28;20688;-71
2022/05/31 13:51:58;;;;;;;5.07;2.13;;;;;;;;;;5031831;28;20257;-70
2022/05/31 13:54:28;;;;;;;4.93;2.25;;;;;;;;;;5031576;28;20228;-72
2022/05/31 13:56:58;;;;;;;3.42;2.40;;;;;;;;;;5032364;28;20202;-72
2022/05/31 13:59:54;;;;;;;5.07;2.83;;;;;;;;;;5035542;28;20553;-71
2022/05/31 14:02:21;;;;;;;5.95;2.33;;;;;;;;;;5031946;28;20245;-71
2022/05/31 14:04:58;;;;;;;3.70;2.15;;;;;;;;;;5038202;28;20747;-71
2022/05/31 14:07:33;;;;;;;4.43;2.53;;;;;;;;;;5038870;28;20200;-72
2022/05/31 14:10:00;;;;;;;4.45;2.58;;;;;;;;;;5038443;28;20485;-71
2022/05/31 14:12:29;;;;;;;4.50;2.30;;;;;;;;;;5031539;28;20222;-71
2022/05/31 14:14:55;;;;;;;3.65;1.95;;;;;;;;;;5045831;28;20681;-66
2022/05/31 14:17:50;;;;;;;6.82;2.53;;;;;;;;;;5036380;28;20249;-70
2022/05/31 14:20:16;;;;;;;3.92;2.20;;;;;;;;;;5031815;28;20300;-68
2022/05/31 14:22:42;;;;;;;3.75;2.53;;;;;;;;;;5032801;28;20264;-71
2022/05/31 14:25:09;;;;;;;4.00;2.40;;;;;;;;;;5044294;28;20182;-71
2022/05/31 14:27:38;;;;;;;3.22;2.17;;;;;;;;;;5039086;28;20174;-71
2022/05/31 14:30:08;;;;;;;2.63;1.85;;;;;;;;;;5031502;28;20202;-70
2022/05/31 14:32:44;;;;;;;4.47;2.65;;;;;;;;;;5031609;28;20685;-71
2022/05/31 14:35:21;;;;;;;7.28;2.70;;;;;;;;;;5035730;28;20198;-69
2022/05/31 14:37:51;;;;;;;6.60;2.10;;;;;;;;;;5041826;28;20185;-69
2022/05/31 14:40:31;;;;;;;6.45;2.40;;;;;;;;;;5035578;28;20180;-65
2022/05/31 14:43:07;;;;;;;3.35;2.50;;;;;;;;;;5031676;28;20260;-69
2022/05/31 14:45:46;;;;;;;5.85;2.20;;;;;;;;;;5037312;28;20492;-69
2022/05/31 14:48:40;;;;;;;3.22;2.72;;;;;;;;;;5033015;28;20186;-70
2022/05/31 14:51:10;;;;;;;4.18;2.05;;;;;;;;;;5034143;28;20178;-70
2022/05/31 14:53:41;;;;;;;3.78;2.38;;;;;;;;;;5035192;28;20305;-70
2022/05/31 14:56:27;;;;;;;4.38;2.58;;;;;;;;;;5034595;28;20572;-70
2022/05/31 14:58:59;;;;;;;3.88;2.60;;;;;;;;;;5036537;28;20182;-70
2022/05/31 15:01:47;;;;;;;3.22;2.25;;;;;;;;;;5036294;28;20244;-70
2022/05/31 15:04:17;;;;;;;4.03;2.53;;;;;;;;;;5033702;28;20274;-70
2022/05/31 15:06:44;;;;;;;3.17;2.40;;;;;;;;;;5033846;28;20190;-70
2022/05/31 15:09:13;;;;;;;4.43;2.33;;;;;;;;;;5041795;28;20488;-67
2022/05/31 15:19:52;;;;;;;6.18;2.10;;;;;;;;;;5040640;28;20281;-70
2022/05/31 15:22:24;;;;;;;4.82;2.50;;;;;;;;;;5037427;28;20711;-70
2022/05/31 15:24:55;;;;;;;4.28;2.70;;;;;;;;;;5049836;28;20178;-70
2022/05/31 15:27:36;;;;;;;5.88;2.25;;;;;;;;;;5043946;28;20173;-70
2022/05/31 15:30:03;;;;;;;4.43;3.10;;;;;;;;;;5034102;28;20648;-71
2022/05/31 15:32:29;;;;;;;5.53;2.65;;;;;;;;;;5034963;28;20201;-70
2022/05/31 15:34:54;;;;;;;5.90;2.72;;;;;;;;;;5043581;28;20560;-70
2022/05/31 15:37:22;;;;;;;8.85;3.10;;;;;;;;;;5031561;28;20258;-71
2022/05/31 15:39:49;;;;;;;4.65;2.65;;;;;;;;;;5033964;28;20232;-70
2022/05/31 15:42:17;;;;;;;4.15;2.90;;;;;;;;;;5039252;28;20186;-71
2022/05/31 15:44:43;;;;;;;6.30;2.70;;;;;;;;;;5030550;28;20181;-71
2022/05/31 15:47:10;;;;;;;6.97;3.03;;;;;;;;;;5031598;28;20256;-72
2022/05/31 15:49:36;;;;;;;6.20;2.90;;;;;;;;;;5029866;28;20182;-71
2022/05/31 15:52:10;;;;;;;4.15;2.85;;;;;;;;;;5033215;28;20177;-71